createdAt,value
2023-05-22T00:02:21.807Z,16.20
2023-05-22T00:05:10.299Z,16.10
2023-05-22T00:07:50.697Z,16.10
2023-05-22T00:10:38.510Z,16.10
2023-05-22T00:13:18.762Z,16.10
2023-05-22T00:16:06.201Z,16.10
2023-05-22T00:18:48.774Z,16.00
2023-05-22T00:21:37.700Z,16.00
2023-05-22T00:24:17.731Z,16.00
2023-05-22T00:27:04.814Z,16.00
2023-05-22T00:29:44.756Z,16.00
2023-05-22T00:32:32.882Z,15.90
2023-05-22T00:35:13.705Z,15.90
2023-05-22T00:38:08.215Z,15.80
2023-05-22T00:40:54.789Z,15.80
2023-05-22T00:43:41.880Z,15.80
2023-05-22T00:46:28.952Z,15.80
2023-05-22T00:49:15.730Z,15.70
2023-05-22T00:51:55.974Z,15.70
2023-05-22T00:54:42.742Z,15.60
2023-05-22T00:57:24.692Z,15.60
2023-05-22T01:00:15.763Z,15.60
2023-05-22T01:02:55.977Z,15.60
2023-05-22T01:05:42.786Z,15.60
2023-05-22T01:08:22.913Z,15.60
2023-05-22T01:11:35.898Z,15.50
2023-05-22T01:14:15.946Z,15.50
2023-05-22T01:17:08.851Z,15.40
2023-05-22T01:20:14.528Z,15.40
2023-05-22T01:23:27.890Z,15.40
2023-05-22T01:26:11.559Z,15.40
2023-05-22T01:29:16.811Z,15.40
2023-05-22T01:31:56.892Z,15.40
2023-05-22T01:34:44.790Z,15.40
2023-05-22T01:37:38.880Z,15.30
2023-05-22T01:40:25.881Z,15.30
2023-05-22T01:43:05.837Z,15.30
2023-05-22T01:45:52.985Z,15.30
2023-05-22T01:48:33.828Z,15.30
2023-05-22T01:51:25.010Z,15.30
2023-05-22T01:54:19.024Z,15.30
2023-05-22T01:57:07.569Z,15.30
2023-05-22T02:00:00.978Z,15.30
2023-05-22T02:02:57.054Z,15.30
2023-05-22T02:09:31.664Z,15.30
2023-05-22T02:12:49.633Z,15.30
2023-05-22T02:16:24.711Z,15.20
2023-05-22T02:19:42.069Z,15.20
2023-05-22T02:22:28.887Z,15.20
2023-05-22T02:25:20.945Z,15.20
2023-05-22T02:28:07.985Z,15.20
2023-05-22T02:30:47.933Z,15.10
2023-05-22T02:33:49.881Z,15.10
2023-05-22T02:36:37.930Z,15.10
2023-05-22T02:39:19.481Z,15.00
2023-05-22T02:42:05.941Z,15.00
2023-05-22T02:44:45.999Z,15.00
2023-05-22T02:47:33.192Z,15.00
2023-05-22T02:50:14.802Z,15.10
2023-05-22T02:53:02.008Z,15.10
2023-05-22T02:55:42.063Z,15.10
2023-05-22T02:58:29.904Z,15.20
2023-05-22T03:01:10.632Z,15.20
2023-05-22T03:03:58.075Z,15.20
2023-05-22T03:06:38.400Z,15.20
2023-05-22T03:09:26.953Z,15.20
2023-05-22T03:12:08.040Z,15.20
2023-05-22T03:14:54.883Z,15.20
2023-05-22T03:17:37.151Z,15.30
2023-05-22T03:20:24.020Z,15.20
2023-05-22T03:23:04.091Z,15.30
2023-05-22T03:25:50.935Z,15.30
2023-05-22T03:28:43.077Z,15.30
2023-05-22T03:31:34.138Z,15.30
2023-05-22T03:34:18.376Z,15.30
2023-05-22T03:37:12.004Z,15.40
2023-05-22T03:39:58.980Z,15.50
2023-05-22T03:42:39.025Z,15.50
2023-05-22T03:45:27.998Z,15.50
2023-05-22T03:48:11.197Z,15.50
2023-05-22T03:50:57.954Z,15.60
2023-05-22T03:53:39.056Z,15.70
2023-05-22T03:56:25.914Z,15.70
2023-05-22T03:59:06.121Z,15.80
2023-05-22T04:01:53.055Z,15.80
2023-05-22T04:04:34.661Z,15.90
2023-05-22T04:07:22.061Z,15.90
2023-05-22T04:10:02.059Z,16.00
2023-05-22T04:12:48.984Z,16.10
2023-05-22T04:15:29.102Z,16.10
2023-05-22T04:18:16.174Z,16.20
2023-05-22T04:20:56.206Z,16.30
2023-05-22T04:23:43.023Z,16.30
2023-05-22T04:26:23.120Z,16.40
2023-05-22T04:29:10.043Z,16.40
2023-05-22T04:31:50.101Z,16.50
2023-05-22T04:34:37.089Z,16.50
2023-05-22T04:37:35.122Z,16.60
2023-05-22T04:40:22.236Z,16.70
2023-05-22T04:43:02.076Z,16.80
2023-05-22T04:45:49.105Z,16.90
2023-05-22T04:48:30.038Z,17.00
2023-05-22T04:51:17.180Z,17.10
2023-05-22T04:53:59.088Z,17.20
2023-05-22T04:56:46.136Z,17.30
2023-05-22T04:59:30.032Z,17.40
2023-05-22T05:02:17.294Z,17.40
2023-05-22T05:04:57.159Z,17.50
2023-05-22T05:07:45.579Z,17.60
2023-05-22T05:13:15.245Z,17.80
2023-05-22T05:15:56.048Z,17.90
2023-05-22T05:18:43.930Z,18.00
2023-05-22T05:21:25.042Z,18.00
2023-05-22T05:24:14.220Z,18.10
2023-05-22T05:26:56.069Z,18.20
2023-05-22T05:29:44.251Z,18.30
2023-05-22T05:32:37.164Z,18.30
2023-05-22T05:35:35.102Z,18.40
2023-05-22T05:38:24.207Z,18.40
2023-05-22T05:41:04.052Z,18.50
2023-05-22T05:43:52.511Z,18.60
2023-05-22T05:46:34.218Z,18.60
2023-05-22T05:49:22.617Z,18.60
2023-05-22T05:52:02.111Z,18.70
2023-05-22T05:54:50.223Z,18.70
2023-05-22T05:57:30.175Z,18.80
2023-05-22T06:00:12.652Z,18.90
2023-05-22T06:03:02.357Z,19.00
2023-05-22T06:06:08.531Z,19.00
2023-05-22T06:09:19.125Z,19.20
2023-05-22T06:12:26.198Z,19.20
2023-05-22T06:15:06.298Z,19.40
2023-05-22T06:17:53.233Z,19.40
2023-05-22T06:20:33.383Z,19.50
2023-05-22T06:23:21.111Z,19.50
2023-05-22T06:26:02.430Z,19.60
2023-05-22T06:28:52.150Z,19.70
2023-05-22T06:31:35.499Z,19.70
2023-05-22T06:34:51.158Z,19.80
2023-05-22T06:37:57.536Z,19.90
2023-05-22T06:40:44.148Z,20.00
2023-05-22T06:43:35.342Z,20.10
2023-05-22T06:46:19.290Z,20.20
2023-05-22T06:49:17.194Z,20.40
2023-05-22T06:52:07.512Z,20.50
2023-05-22T06:54:49.178Z,20.70
2023-05-22T06:57:36.460Z,20.90
2023-05-22T07:00:21.573Z,21.10
2023-05-22T07:03:14.549Z,21.30
2023-05-22T07:06:39.386Z,21.50
2023-05-22T07:09:20.542Z,21.80
2023-05-22T07:12:07.191Z,22.00
2023-05-22T07:14:54.715Z,22.20
2023-05-22T07:17:36.191Z,22.50
2023-05-22T07:20:26.419Z,22.70
2023-05-22T07:23:16.267Z,22.90
2023-05-22T07:26:11.296Z,23.20
2023-05-22T07:28:58.445Z,23.50
2023-05-22T07:31:45.244Z,23.90
2023-05-22T07:34:34.489Z,24.40
2023-05-22T07:37:22.250Z,24.80
2023-05-22T07:40:02.351Z,24.90
2023-05-22T07:42:49.269Z,25.30
2023-05-22T07:45:29.629Z,25.90
2023-05-22T07:48:19.260Z,26.30
2023-05-22T08:01:38.190Z,27.50
2023-05-22T08:04:25.358Z,27.40
2023-05-22T08:07:12.967Z,27.00
2023-05-22T08:09:53.340Z,26.40
2023-05-22T08:12:40.379Z,26.00
2023-05-22T08:15:20.259Z,26.00
2023-05-22T08:18:10.490Z,26.00
2023-05-22T08:20:50.381Z,26.00
2023-05-22T08:23:38.650Z,26.00
2023-05-22T08:26:18.296Z,25.80
2023-05-22T08:29:05.498Z,25.70
2023-05-22T08:31:45.351Z,25.60
2023-05-22T08:34:39.337Z,25.80
2023-05-22T08:37:26.510Z,25.80
2023-05-22T08:40:06.321Z,25.90
2023-05-22T08:42:55.156Z,26.10
2023-05-22T08:45:36.356Z,26.20
2023-05-22T08:48:24.868Z,26.30
2023-05-22T08:51:05.773Z,26.40
2023-05-22T08:53:52.752Z,26.60
2023-05-22T08:56:35.359Z,26.70
2023-05-22T08:59:24.426Z,27.00
2023-05-22T09:02:05.136Z,27.20
2023-05-22T09:07:21.358Z,28.40
2023-05-22T09:10:05.284Z,28.60
2023-05-22T09:13:11.495Z,28.80
2023-05-22T09:15:51.440Z,29.20
2023-05-22T09:18:39.465Z,29.80
2023-05-22T09:21:30.027Z,29.70
2023-05-22T09:24:17.454Z,29.60
2023-05-22T09:26:57.570Z,29.60
2023-05-22T09:29:57.400Z,29.50
2023-05-22T09:32:45.412Z,29.10
2023-05-22T09:35:34.388Z,28.90
2023-05-22T09:38:28.400Z,28.60
2023-05-22T09:41:15.512Z,28.90
2023-05-22T09:43:59.821Z,29.50
2023-05-22T09:46:42.598Z,30.30
2023-05-22T09:49:29.428Z,31.50
2023-05-22T09:52:16.648Z,32.00
2023-05-22T09:55:01.398Z,32.40
2023-05-22T09:57:52.382Z,32.50
2023-05-22T10:00:33.423Z,32.60
2023-05-22T10:03:20.509Z,32.90
2023-05-22T10:06:01.443Z,32.60
2023-05-22T10:08:50.542Z,32.60
2023-05-22T10:11:31.545Z,32.80
2023-05-22T10:14:12.711Z,32.70
2023-05-22T10:16:59.459Z,32.80
2023-05-22T10:19:47.724Z,32.50
2023-05-22T10:22:29.435Z,32.60
2023-05-22T10:25:18.470Z,32.70
2023-05-22T10:27:59.452Z,32.90
2023-05-22T10:30:46.612Z,32.80
2023-05-22T10:33:32.393Z,32.80
2023-05-22T10:36:35.455Z,32.60
2023-05-22T10:39:42.578Z,32.20
2023-05-22T10:42:29.489Z,31.80
2023-05-22T10:45:17.668Z,31.60
2023-05-22T10:48:07.538Z,31.20
2023-05-22T10:50:59.780Z,31.40
2023-05-22T10:53:40.474Z,31.50
2023-05-22T10:56:27.610Z,31.60
2023-05-22T10:59:11.582Z,31.60
2023-05-22T11:02:00.620Z,31.40
2023-05-22T11:04:47.477Z,31.30
2023-05-22T11:07:38.319Z,31.60
2023-05-22T11:10:25.502Z,31.70
2023-05-22T11:13:12.347Z,31.70
2023-05-22T11:15:59.616Z,31.80
2023-05-22T11:18:47.330Z,32.30
2023-05-22T11:21:28.516Z,31.80
2023-05-22T11:24:16.571Z,31.20
2023-05-22T11:27:15.717Z,31.00
2023-05-22T11:30:02.551Z,30.80
2023-05-22T11:32:48.161Z,30.60
2023-05-22T11:35:35.605Z,30.30
2023-05-22T11:38:30.629Z,30.40
2023-05-22T11:41:18.564Z,30.40
2023-05-22T11:43:58.676Z,30.40
2023-05-22T11:46:45.739Z,30.50
2023-05-22T11:49:25.770Z,30.30
2023-05-22T11:52:13.548Z,30.00
2023-05-22T11:54:53.744Z,30.10
2023-05-22T11:57:41.576Z,30.00
2023-05-22T12:00:21.757Z,30.20
2023-05-22T12:03:08.668Z,30.10
2023-05-22T12:05:51.730Z,30.30
2023-05-22T12:08:38.629Z,30.00
2023-05-22T12:11:18.713Z,30.20
2023-05-22T12:14:08.609Z,30.20
2023-05-22T12:16:48.751Z,30.20
2023-05-22T12:19:35.817Z,29.90
2023-05-22T12:22:16.763Z,29.50
2023-05-22T12:27:45.575Z,28.60
2023-05-22T12:30:25.712Z,28.20
2023-05-22T12:33:06.045Z,27.50
2023-05-22T12:35:52.742Z,26.80
2023-05-22T12:38:39.849Z,26.40
2023-05-22T12:41:19.627Z,25.80
2023-05-22T12:44:06.789Z,25.50
2023-05-22T12:46:47.776Z,25.30
2023-05-22T12:52:08.642Z,24.60
2023-05-22T12:54:48.739Z,24.50
2023-05-22T12:57:35.634Z,24.60
2023-05-22T13:00:22.637Z,24.50
2023-05-22T13:03:09.819Z,24.40
2023-05-22T13:05:49.646Z,24.40
2023-05-22T13:08:36.801Z,24.30
2023-05-22T13:11:19.661Z,24.20
2023-05-22T13:14:06.779Z,24.20
2023-05-22T13:16:47.748Z,24.20
2023-05-22T13:19:34.986Z,24.00
2023-05-22T13:22:16.645Z,23.70
2023-05-22T13:25:03.877Z,23.60
2023-05-22T13:27:43.672Z,23.70
2023-05-22T13:30:23.929Z,23.50
2023-05-22T13:33:10.745Z,23.50
2023-05-22T13:35:57.870Z,23.40
2023-05-22T13:38:51.671Z,23.50
2023-05-22T13:41:38.862Z,23.30
2023-05-22T13:44:18.704Z,23.20
2023-05-22T13:47:06.047Z,23.30
2023-05-22T13:49:45.703Z,23.00
2023-05-22T13:52:32.789Z,23.00
2023-05-22T13:55:13.719Z,23.10
2023-05-22T13:58:00.817Z,23.10
2023-05-22T14:00:40.716Z,23.00
2023-05-22T14:03:34.780Z,23.00
2023-05-22T14:06:21.896Z,22.90
2023-05-22T14:09:01.692Z,22.90
2023-05-22T14:11:48.884Z,22.90
2023-05-22T14:14:30.791Z,22.90
2023-05-22T14:17:11.077Z,22.70
2023-05-22T14:19:57.764Z,22.60
2023-05-22T14:22:56.527Z,22.50
2023-05-22T14:25:37.972Z,22.50
2023-05-22T14:28:24.854Z,22.30
2023-05-22T14:31:04.817Z,22.40
2023-05-22T14:33:51.834Z,22.40
2023-05-22T14:36:31.863Z,22.50
2023-05-22T14:39:18.891Z,22.60
2023-05-22T14:42:01.749Z,22.50
2023-05-22T14:44:48.860Z,22.50
2023-05-22T14:47:28.753Z,22.40
2023-05-22T14:50:23.805Z,22.40
2023-05-22T14:53:10.789Z,22.40
2023-05-22T14:55:57.912Z,22.30
2023-05-22T14:58:38.249Z,22.10
2023-05-22T15:01:24.851Z,22.00
2023-05-22T15:04:11.896Z,22.10
2023-05-22T15:06:51.828Z,22.10
2023-05-22T15:09:32.633Z,22.10
2023-05-22T15:12:21.331Z,22.10
2023-05-22T15:15:10.022Z,22.10
2023-05-22T15:17:49.890Z,22.10
2023-05-22T15:20:36.954Z,22.10
2023-05-22T15:23:16.812Z,22.10
2023-05-22T15:26:04.153Z,22.00
2023-05-22T15:28:43.875Z,21.90
2023-05-22T15:31:31.075Z,22.00
2023-05-22T15:34:11.949Z,22.00
2023-05-22T15:37:05.968Z,22.00
2023-05-22T15:39:59.882Z,21.90
2023-05-22T15:42:54.853Z,21.80
2023-05-22T15:45:45.674Z,21.70
2023-05-22T15:48:26.232Z,21.60
2023-05-22T15:51:13.027Z,21.60
2023-05-22T15:53:52.962Z,21.60
2023-05-22T15:56:40.125Z,21.60
2023-05-22T15:59:19.916Z,21.60
2023-05-22T16:02:06.941Z,21.60
2023-05-22T16:04:46.868Z,21.60
2023-05-22T16:07:33.965Z,21.60
2023-05-22T16:10:13.876Z,21.60
2023-05-22T16:13:01.281Z,21.60
2023-05-22T16:15:41.111Z,21.70
2023-05-22T16:18:27.964Z,21.70
2023-05-22T16:21:07.885Z,21.70
2023-05-22T16:23:55.005Z,21.60
2023-05-22T16:26:36.968Z,21.60
2023-05-22T16:29:25.030Z,21.70
2023-05-22T16:32:05.010Z,21.70
2023-05-22T16:34:51.996Z,21.80
2023-05-22T16:37:32.005Z,21.80
2023-05-22T16:40:19.021Z,21.80
2023-05-22T16:42:58.908Z,21.80
2023-05-22T16:45:39.325Z,21.70
2023-05-22T16:48:26.016Z,21.70
2023-05-22T16:51:06.247Z,21.60
2023-05-22T16:53:53.986Z,21.50
2023-05-22T16:56:41.064Z,21.40
2023-05-22T16:59:23.264Z,21.30
2023-05-22T17:02:16.947Z,21.20
2023-05-22T17:05:04.079Z,21.10
2023-05-22T17:07:44.029Z,21.10
2023-05-22T17:10:31.112Z,21.00
2023-05-22T17:13:11.967Z,21.00
2023-05-22T17:15:52.169Z,20.90
2023-05-22T17:18:39.035Z,20.90
2023-05-22T17:21:26.043Z,20.90
2023-05-22T17:24:05.968Z,20.80
2023-05-22T17:26:53.059Z,20.80
2023-05-22T17:29:33.058Z,20.80
2023-05-22T17:32:20.126Z,20.70
2023-05-22T17:35:00.007Z,20.70
2023-05-22T17:37:33.886Z,20.50
2023-05-22T17:40:14.003Z,20.50
2023-05-22T17:42:54.151Z,20.50
2023-05-22T17:45:41.101Z,20.40
2023-05-22T17:48:27.104Z,20.30
2023-05-22T17:51:14.093Z,20.30
2023-05-22T17:53:56.503Z,20.20
2023-05-22T17:56:42.974Z,20.20
2023-05-22T17:59:23.146Z,20.10
2023-05-22T18:02:09.974Z,20.10
2023-05-22T18:04:57.087Z,20.00
2023-05-22T18:07:44.147Z,19.90
2023-05-22T18:10:24.036Z,19.90
2023-05-22T18:13:11.130Z,19.80
2023-05-22T18:15:51.055Z,19.70
2023-05-22T18:18:38.157Z,19.70
2023-05-22T18:21:18.003Z,19.50
2023-05-22T18:24:05.179Z,19.50
2023-05-22T18:26:45.020Z,19.40
2023-05-22T18:29:25.321Z,19.30
2023-05-22T18:32:12.126Z,19.30
2023-05-22T18:34:52.372Z,19.30
2023-05-22T18:37:39.077Z,19.40
2023-05-22T18:40:26.169Z,19.40
2023-05-22T18:43:06.101Z,19.40
2023-05-22T18:45:53.236Z,19.40
2023-05-22T18:48:34.104Z,19.40
2023-05-22T18:51:21.309Z,19.50
2023-05-22T18:54:01.073Z,19.50
2023-05-22T18:56:48.286Z,19.50
2023-05-22T18:59:31.086Z,19.50
2023-05-22T19:02:21.317Z,19.50
2023-05-22T19:05:01.220Z,19.50
2023-05-22T19:07:48.233Z,19.40
2023-05-22T19:10:29.114Z,19.40
2023-05-22T19:13:25.981Z,19.40
2023-05-22T19:16:13.244Z,19.40
2023-05-22T19:18:56.179Z,19.40
2023-05-22T19:21:43.181Z,19.30
2023-05-22T19:24:23.141Z,19.30
2023-05-22T19:27:10.355Z,19.30
2023-05-22T19:29:50.177Z,19.30
2023-05-22T19:32:37.384Z,19.30
2023-05-22T19:35:25.239Z,19.30
2023-05-22T19:38:15.118Z,19.30
2023-05-22T19:41:03.207Z,19.20
2023-05-22T19:43:53.234Z,19.10
2023-05-22T19:46:33.175Z,19.00
2023-05-22T19:49:21.232Z,18.90
2023-05-22T19:52:01.149Z,18.90
2023-05-22T19:54:41.626Z,18.90
2023-05-22T19:57:28.241Z,18.80
2023-05-22T20:00:11.171Z,18.80
2023-05-22T20:02:58.261Z,18.80
2023-05-22T20:05:56.237Z,18.80
2023-05-22T20:08:44.315Z,18.70
2023-05-22T20:11:24.154Z,18.70
2023-05-22T20:14:11.893Z,18.70
2023-05-22T20:19:40.318Z,18.60
2023-05-22T20:22:22.980Z,18.60
2023-05-22T20:25:12.692Z,18.60
2023-05-22T20:27:59.660Z,18.50
2023-05-22T20:30:49.155Z,18.50
2023-05-22T20:33:34.208Z,18.50
2023-05-22T20:36:22.614Z,18.50
2023-05-22T20:39:09.243Z,18.50
2023-05-22T20:41:54.475Z,18.50
2023-05-22T20:44:43.412Z,18.40
2023-05-22T20:47:25.858Z,18.40
2023-05-22T20:50:12.261Z,18.40
2023-05-22T20:52:52.976Z,18.40
2023-05-22T20:55:40.540Z,18.40
2023-05-22T20:58:27.289Z,18.30
2023-05-22T21:01:07.601Z,18.30
2023-05-22T21:03:54.222Z,18.20
2023-05-22T21:06:34.483Z,18.30
2023-05-22T21:09:21.332Z,18.20
2023-05-22T21:12:08.599Z,18.20
2023-05-22T21:14:50.241Z,18.20
2023-05-22T21:17:37.452Z,18.20
2023-05-22T21:20:18.231Z,18.20
2023-05-22T21:23:05.510Z,18.20
2023-05-22T21:25:45.243Z,18.20
2023-05-22T21:28:32.429Z,18.20
2023-05-22T21:31:13.294Z,18.20
2023-05-22T21:34:00.409Z,18.20
2023-05-22T21:36:40.302Z,18.20
2023-05-22T21:39:27.403Z,18.20
2023-05-22T21:42:08.295Z,18.20
2023-05-22T21:44:55.241Z,18.10
2023-05-22T21:47:42.395Z,18.10
2023-05-22T21:50:29.530Z,18.10
2023-05-22T21:53:09.277Z,18.00
2023-05-22T21:55:56.449Z,18.00
2023-05-22T21:58:36.270Z,18.00
2023-05-22T22:01:23.456Z,17.90
2023-05-22T22:04:03.475Z,17.90
2023-05-22T22:06:50.349Z,17.90
2023-05-22T22:09:37.408Z,17.90
2023-05-22T22:12:18.410Z,17.90
2023-05-22T22:15:05.460Z,17.80
2023-05-22T22:17:47.376Z,17.70
2023-05-22T22:20:44.050Z,17.70
2023-05-22T22:23:24.313Z,17.60
2023-05-22T22:26:04.609Z,17.70
2023-05-22T22:28:51.361Z,17.70
2023-05-22T22:31:32.800Z,17.70
2023-05-22T22:34:19.361Z,17.60
2023-05-22T22:37:06.990Z,17.60
2023-05-22T22:39:53.325Z,17.70
2023-05-22T22:42:33.573Z,17.60
2023-05-22T22:45:21.441Z,17.60
2023-05-22T22:48:01.615Z,17.60
2023-05-22T22:50:48.358Z,17.50
2023-05-22T22:53:28.574Z,17.50
2023-05-22T22:56:15.625Z,17.50
2023-05-22T22:58:55.565Z,17.50
2023-05-22T23:01:42.498Z,17.50
2023-05-22T23:04:22.736Z,17.50
2023-05-22T23:07:09.382Z,17.50
2023-05-22T23:09:49.492Z,17.50
2023-05-22T23:12:36.445Z,17.40
2023-05-22T23:15:23.373Z,17.40
2023-05-22T23:18:11.074Z,17.40
2023-05-22T23:20:51.422Z,17.40
2023-05-22T23:23:38.467Z,17.40
2023-05-22T23:26:18.510Z,17.40
2023-05-22T23:29:05.609Z,17.30
2023-05-22T23:31:46.541Z,17.30
2023-05-22T23:34:33.585Z,17.20
2023-05-22T23:37:13.465Z,17.20
2023-05-22T23:40:00.629Z,17.20
2023-05-22T23:42:42.416Z,17.20
2023-05-22T23:45:29.527Z,17.10
2023-05-22T23:48:09.609Z,17.00
2023-05-22T23:50:56.492Z,17.00
2023-05-22T23:53:36.409Z,17.00
2023-05-22T23:56:23.639Z,17.00
2023-05-22T23:59:03.411Z,17.00
